Time;durP1;ratioP1;P1;durP2;ratioP2;P2;SDS_P1;SDS_P2;PMS_P1;PMS_P2;Temp;Humidity;BMP_temperature;BMP_pressure;BME280_temperature;BME280_humidity;BME280_pressure;Samples;Min_cycle;Max_cycle;Signal;HPM_P1;HPM_P2
2023/07/28 00:01:49;;;;;;;2.55;2.35;;;;;;;17.31;62.07;94904.28;5032605;28;20208;-79
2023/07/28 00:04:14;;;;;;;3.42;2.67;;;;;;;17.44;62.13;94927.84;5032490;28;20227;-79
2023/07/28 00:06:40;;;;;;;4.00;2.75;;;;;;;17.39;62.12;94929.66;5031437;28;20183;-79
2023/07/28 00:09:05;;;;;;;3.60;2.35;;;;;;;17.39;62.14;94925.13;5030639;28;20716;-79
2023/07/28 00:11:30;;;;;;;3.03;2.70;;;;;;;17.35;62.86;94930.16;5030223;28;20262;-79
2023/07/28 00:13:56;;;;;;;8.97;3.03;;;;;;;17.24;63.17;94906.34;5031306;28;20412;-78
2023/07/28 00:16:21;;;;;;;3.13;2.78;;;;;;;17.36;62.22;94915.00;5031454;28;20211;-79
2023/07/28 00:18:46;;;;;;;3.05;2.47;;;;;;;17.43;62.40;94925.44;5031487;28;20631;-79
2023/07/28 00:21:12;;;;;;;4.20;2.55;;;;;;;17.39;62.90;94917.16;5031907;28;20341;-79
2023/07/28 00:23:40;;;;;;;5.45;2.67;;;;;;;17.28;62.86;94902.16;5032062;28;20587;-79
2023/07/28 00:26:06;;;;;;;6.18;3.03;;;;;;;17.38;62.82;94918.22;5032051;28;20571;-79
2023/07/28 00:28:31;;;;;;;3.20;2.88;;;;;;;17.33;63.08;94915.50;5032051;28;20179;-79
2023/07/28 00:30:57;;;;;;;4.10;2.90;;;;;;;17.22;63.00;94908.47;5032018;28;20717;-79
2023/07/28 00:33:22;;;;;;;7.97;2.58;;;;;;;17.26;62.84;94910.38;5032184;28;20167;-79
2023/07/28 00:35:49;;;;;;;5.50;3.05;;;;;;;17.27;63.54;94917.31;5032133;28;20240;-78
2023/07/28 00:38:14;;;;;;;3.95;2.72;;;;;;;17.26;62.91;94915.69;5031989;28;20183;-79
2023/07/28 00:40:40;;;;;;;5.50;2.85;;;;;;;17.14;62.79;94906.25;5031621;28;20196;-79
2023/07/28 00:43:05;;;;;;;6.03;3.20;;;;;;;17.12;63.15;94903.84;5031862;28;20474;-79
2023/07/28 00:45:33;;;;;;;4.03;2.95;;;;;;;17.17;63.23;94919.88;5032064;28;20318;-79
2023/07/28 00:47:58;;;;;;;4.72;3.35;;;;;;;17.17;63.10;94924.38;5032034;28;20208;-79
2023/07/28 00:50:24;;;;;;;3.22;2.90;;;;;;;17.15;63.70;94921.97;5031800;28;20281;-79
2023/07/28 00:52:50;;;;;;;5.13;3.13;;;;;;;16.90;63.36;94893.22;5031688;28;20198;-79
2023/07/28 00:55:16;;;;;;;4.22;2.95;;;;;;;16.88;63.22;94905.97;5031617;28;20643;-79
2023/07/28 00:57:42;;;;;;;3.22;2.92;;;;;;;16.71;63.60;94899.09;5031710;28;20175;-79
2023/07/28 01:00:08;;;;;;;3.40;3.00;;;;;;;16.78;63.91;94915.66;5031752;28;20627;-79
2023/07/28 01:02:33;;;;;;;3.75;2.90;;;;;;;16.77;63.99;94920.22;5031113;28;20203;-79
2023/07/28 01:04:59;;;;;;;2.97;2.78;;;;;;;16.80;64.23;94921.56;5031685;28;20175;-79
2023/07/28 01:07:29;;;;;;;3.58;2.70;;;;;;;16.73;64.17;94908.44;5031999;28;20643;-79
2023/07/28 01:10:12;;;;;;;3.88;3.00;;;;;;;16.72;64.24;94916.66;5031798;28;20182;-79
2023/07/28 01:12:38;;;;;;;4.68;3.20;;;;;;;16.77;64.10;94930.84;5029450;28;20178;-79
2023/07/28 01:15:04;;;;;;;6.53;3.28;;;;;;;16.77;64.11;94928.19;5029105;28;20211;-79
2023/07/28 01:17:29;;;;;;;7.53;5.43;;;;;;;16.62;63.55;94912.03;5019359;28;20176;-79
2023/07/28 01:19:55;;;;;;;8.10;5.57;;;;;;;16.53;64.15;94902.84;5023238;28;20601;-79
2023/07/28 01:22:20;;;;;;;10.93;6.22;;;;;;;16.62;63.70;94921.84;5019880;28;20204;-79
2023/07/28 01:25:00;;;;;;;4.60;4.10;;;;;;;16.54;64.07;94923.84;5022878;28;20199;-79
2023/07/28 01:27:25;;;;;;;4.68;3.60;;;;;;;16.41;63.76;94910.13;5020439;28;20640;-80
2023/07/28 01:29:51;;;;;;;9.90;6.90;;;;;;;16.26;63.88;94904.63;5024122;28;20182;-80
2023/07/28 01:32:16;;;;;;;15.82;8.98;;;;;;;16.27;64.55;94922.94;5021105;28;20562;-80
2023/07/28 01:34:42;;;;;;;11.77;7.50;;;;;;;16.28;65.08;94929.06;5020857;28;20180;-79
2023/07/28 01:37:07;;;;;;;12.30;7.90;;;;;;;16.32;65.15;94924.88;5017607;28;20554;-79
2023/07/28 01:39:33;;;;;;;9.02;6.30;;;;;;;16.10;64.96;94880.47;5023257;28;20172;-79
2023/07/28 01:41:58;;;;;;;10.75;7.38;;;;;;;16.42;64.89;94925.03;5020214;28;20645;-79
2023/07/28 01:44:24;;;;;;;7.32;5.53;;;;;;;16.38;65.03;94921.25;5017413;28;20736;-79
2023/07/28 01:46:49;;;;;;;5.10;4.13;;;;;;;16.41;64.62;94924.22;5020968;28;20498;-79
2023/07/28 01:49:15;;;;;;;3.95;3.53;;;;;;;16.38;65.06;94923.91;5022804;28;20202;-80
2023/07/28 01:51:40;;;;;;;7.13;3.05;;;;;;;16.35;64.76;94922.53;5019806;28;20164;-80
2023/07/28 01:54:05;;;;;;;4.78;3.55;;;;;;;16.31;65.00;94916.13;5021938;28;20221;-79
2023/07/28 01:56:31;;;;;;;4.38;3.03;;;;;;;16.34;64.98;94923.59;5017796;28;20164;-80
2023/07/28 01:58:56;;;;;;;5.65;3.42;;;;;;;16.39;65.10;94925.50;5020435;28;20183;-79
2023/07/28 02:01:21;;;;;;;3.35;3.05;;;;;;;16.42;64.96;94931.16;5021802;28;20278;-79
2023/07/28 02:03:47;;;;;;;4.28;3.13;;;;;;;16.37;64.86;94922.28;5020984;28;20176;-79
2023/07/28 02:06:12;;;;;;;3.45;3.15;;;;;;;16.33;64.77;94927.31;5019918;28;20204;-79
2023/07/28 02:08:37;;;;;;;7.00;3.47;;;;;;;16.26;64.79;94924.00;5020400;28;20179;-79
2023/07/28 02:11:04;;;;;;;5.05;3.38;;;;;;;16.18;65.27;94919.91;5018700;28;20574;-80
2023/07/28 02:13:29;;;;;;;4.75;3.58;;;;;;;16.10;65.53;94901.72;5021813;28;20172;-80
2023/07/28 02:15:55;;;;;;;5.45;4.25;;;;;;;16.10;65.55;94904.38;5031145;28;20264;-80
2023/07/28 02:18:20;;;;;;;10.00;6.57;;;;;;;16.03;65.63;94917.03;5033437;28;20783;-80
2023/07/28 02:20:49;;;;;;;18.42;11.05;;;;;;;15.97;65.42;94915.34;5034365;28;20679;-80
2023/07/28 02:23:14;;;;;;;11.18;6.45;;;;;;;16.02;65.39;94923.38;5034584;28;20210;-80
2023/07/28 02:25:39;;;;;;;21.65;13.10;;;;;;;16.02;65.42;94933.19;5034398;28;20180;-80
2023/07/28 02:28:07;;;;;;;11.90;6.55;;;;;;;15.99;65.64;94926.53;5034360;28;20218;-79
2023/07/28 02:30:32;;;;;;;7.45;4.78;;;;;;;15.86;65.25;94913.56;5034476;28;20179;-80
2023/07/28 02:32:57;;;;;;;9.13;5.57;;;;;;;15.92;65.78;94933.84;5034162;28;20176;-80
2023/07/28 02:35:23;;;;;;;9.40;4.85;;;;;;;15.95;65.94;94933.38;5034145;28;21063;-80
2023/07/28 02:37:48;;;;;;;6.53;3.92;;;;;;;15.92;65.90;94933.84;5034162;28;20185;-79
2023/07/28 02:40:14;;;;;;;7.80;4.40;;;;;;;15.96;65.93;94942.13;5033689;28;20835;-79
2023/07/28 02:42:39;;;;;;;6.25;3.58;;;;;;;15.82;65.71;94915.13;5033943;28;20412;-80
2023/07/28 02:45:05;;;;;;;4.35;3.58;;;;;;;15.87;65.31;94922.34;5034052;28;20178;-80
2023/07/28 02:47:30;;;;;;;6.25;3.47;;;;;;;15.84;65.50;94919.13;5034102;28;20237;-79
2023/07/28 02:49:56;;;;;;;6.32;2.70;;;;;;;15.78;65.04;94932.56;5033926;28;20178;-80
2023/07/28 02:52:21;;;;;;;6.07;3.10;;;;;;;15.70;65.94;94925.00;5032698;28;20164;-80
2023/07/28 02:54:47;;;;;;;3.30;3.00;;;;;;;15.74;65.95;94932.22;5033987;28;20665;-79
2023/07/28 02:57:12;;;;;;;4.85;2.85;;;;;;;15.75;65.88;94927.72;5033674;28;20183;-80
2023/07/28 02:59:38;;;;;;;5.85;2.80;;;;;;;15.77;65.89;94931.75;5034002;28;20524;-80
2023/07/28 03:02:03;;;;;;;4.32;3.30;;;;;;;15.57;65.86;94896.13;5033612;28;20183;-78
2023/07/28 03:04:28;;;;;;;7.00;3.42;;;;;;;15.84;65.98;94934.25;5033494;28;20551;-78
2023/07/28 03:06:54;;;;;;;4.85;3.00;;;;;;;15.83;65.98;94933.44;5033490;28;20558;-77
2023/07/28 03:09:19;;;;;;;3.97;3.20;;;;;;;15.81;65.50;94938.22;5014335;28;21089;-78
2023/07/28 03:11:45;;;;;;;3.10;2.80;;;;;;;15.72;65.61;94939.66;5033887;28;20251;-78
2023/07/28 03:14:12;;;;;;;4.35;3.00;;;;;;;15.72;65.39;94938.84;5033352;28;20180;-78
2023/07/28 03:16:38;;;;;;;4.90;3.10;;;;;;;15.62;65.69;94933.34;5033052;28;20215;-78
2023/07/28 03:19:03;;;;;;;6.35;3.55;;;;;;;15.65;65.85;94941.66;5033263;28;20170;-78
2023/07/28 03:21:31;;;;;;;7.75;3.30;;;;;;;15.70;65.91;94944.38;5033048;28;20196;-78
2023/07/28 03:23:56;;;;;;;4.82;3.20;;;;;;;15.66;65.83;94945.91;5033107;28;20175;-78
2023/07/28 03:26:22;;;;;;;3.97;3.55;;;;;;;15.27;65.89;94891.06;5033138;28;20222;-78
2023/07/28 03:28:47;;;;;;;4.03;3.20;;;;;;;15.49;65.64;94937.06;5033194;28;20619;-79
2023/07/28 03:31:12;;;;;;;4.72;2.97;;;;;;;15.38;66.03;94925.50;5033247;28;20172;-82
2023/07/28 03:33:38;;;;;;;8.00;3.38;;;;;;;15.46;66.08;94945.53;5033225;28;20182;-81
2023/07/28 03:36:03;;;;;;;10.10;3.20;;;;;;;15.26;66.16;94921.28;5033329;28;20178;-81
2023/07/28 03:38:29;;;;;;;4.22;2.95;;;;;;;15.33;66.34;94940.50;5032888;28;20266;-81
2023/07/28 03:40:55;;;;;;;6.45;3.15;;;;;;;15.28;66.48;94927.97;5032754;28;20218;-81
2023/07/28 03:43:21;;;;;;;6.82;3.40;;;;;;;15.33;67.06;94943.97;5032987;28;20731;-81
2023/07/28 03:45:47;;;;;;;5.18;3.88;;;;;;;15.40;67.39;94960.53;5032926;28;20164;-81
2023/07/28 03:48:12;;;;;;;6.03;3.30;;;;;;;15.29;67.31;94937.53;5032844;28;20607;-81
2023/07/28 03:50:38;;;;;;;6.57;3.53;;;;;;;15.53;66.94;94963.94;5033358;28;20222;-81
2023/07/28 03:53:03;;;;;;;4.82;3.65;;;;;;;15.57;66.95;94954.50;5032939;28;20187;-81
2023/07/28 03:55:28;;;;;;;9.98;3.70;;;;;;;15.44;66.51;94935.16;5032930;28;20172;-81
2023/07/28 03:57:54;;;;;;;10.52;3.92;;;;;;;15.62;66.75;94958.06;5032598;28;20172;-80
2023/07/28 04:00:19;;;;;;;7.38;3.45;;;;;;;15.73;67.51;94959.84;5032851;28;20255;-80
2023/07/28 04:02:44;;;;;;;4.32;3.38;;;;;;;15.83;67.21;94946.72;5033604;28;20179;-81
2023/07/28 04:05:10;;;;;;;9.20;3.28;;;;;;;15.79;66.67;94937.63;5033025;28;20250;-81
2023/07/28 04:07:35;;;;;;;5.95;3.60;;;;;;;15.78;65.78;94937.88;5032827;28;20250;-81
2023/07/28 04:10:01;;;;;;;7.97;3.90;;;;;;;15.81;66.05;94945.38;5032634;28;20192;-81
2023/07/28 04:12:26;;;;;;;5.53;4.18;;;;;;;15.91;66.30;94963.31;5032797;28;20543;-81
2023/07/28 04:14:51;;;;;;;5.43;3.83;;;;;;;15.93;65.83;94948.72;5032319;28;20227;-81
2023/07/28 04:17:17;;;;;;;6.75;4.15;;;;;;;16.11;65.91;94971.59;5032561;28;20596;-81
2023/07/28 04:19:42;;;;;;;7.88;3.72;;;;;;;16.15;66.04;94949.63;5032236;28;20171;-81
2023/07/28 04:22:08;;;;;;;10.88;4.05;;;;;;;16.29;65.15;94936.00;5014327;28;20187;-81
2023/07/28 04:24:34;;;;;;;12.63;3.35;;;;;;;16.49;64.58;94950.38;5032323;28;20259;-81
2023/07/28 04:26:59;;;;;;;9.10;3.72;;;;;;;16.82;64.30;94967.31;5030681;28;20183;-82
2023/07/28 04:29:26;;;;;;;9.45;4.10;;;;;;;16.98;63.07;94975.22;5032419;28;20195;-80
2023/07/28 04:31:52;;;;;;;7.70;3.30;;;;;;;17.12;62.48;94959.72;5031821;28;20678;-82
2023/07/28 04:34:17;;;;;;;14.90;3.55;;;;;;;17.45;61.24;94972.06;5032179;28;20167;-81
2023/07/28 04:36:42;;;;;;;7.18;3.40;;;;;;;17.66;60.04;94951.78;5031530;28;20199;-81
2023/07/28 04:39:08;;;;;;;4.00;2.60;;;;;;;17.98;59.71;94965.94;5031745;28;20255;-81
2023/07/28 04:41:33;;;;;;;6.65;2.80;;;;;;;18.31;58.61;94956.06;5031312;28;20678;-81
2023/07/28 04:43:59;;;;;;;6.13;2.90;;;;;;;18.74;57.27;94963.00;5028814;28;20171;-81
2023/07/28 04:46:24;;;;;;;5.45;2.47;;;;;;;19.10;56.25;94972.78;5029481;28;20179;-81
2023/07/28 04:48:50;;;;;;;5.15;2.92;;;;;;;19.42;54.92;94974.50;5031765;28;20210;-81
2023/07/28 04:51:15;;;;;;;6.00;3.30;;;;;;;19.73;54.17;94973.53;5031632;28;20178;-80
2023/07/28 04:53:41;;;;;;;4.38;3.35;;;;;;;20.06;54.22;94972.25;5031635;28;20175;-80
2023/07/28 04:56:07;;;;;;;13.45;3.50;;;;;;;20.42;52.99;94981.06;5031834;28;20916;-80
2023/07/28 04:58:33;;;;;;;5.45;3.20;;;;;;;20.86;50.71;94967.88;5031675;28;20245;-80
2023/07/28 05:00:58;;;;;;;5.93;2.85;;;;;;;21.22;49.34;94963.22;5032006;28;20609;-81
2023/07/28 05:03:24;;;;;;;5.72;3.08;;;;;;;21.62;49.18;94977.53;5031855;28;20182;-80
2023/07/28 05:05:50;;;;;;;4.70;3.20;;;;;;;21.97;48.73;94966.56;5031751;28;20172;-81
2023/07/28 05:08:15;;;;;;;3.63;3.00;;;;;;;22.38;46.48;94944.81;5031686;28;20186;-81
2023/07/28 05:10:43;;;;;;;7.50;3.08;;;;;;;22.78;46.29;94962.41;5029168;28;20176;-81
2023/07/28 05:13:08;;;;;;;5.70;3.22;;;;;;;23.23;44.46;94945.00;5031583;28;20602;-81
2023/07/28 05:15:34;;;;;;;4.50;2.88;;;;;;;23.65;43.08;94950.38;5026149;28;20220;-81
2023/07/28 05:17:59;;;;;;;8.00;2.80;;;;;;;24.25;42.81;94972.09;5013001;28;20243;-81
2023/07/28 05:20:24;;;;;;;6.97;2.92;;;;;;;24.43;41.27;94957.81;5019571;28;20188;-81
2023/07/28 05:22:50;;;;;;;7.47;4.60;;;;;;;25.28;40.66;94969.19;5022007;28;20192;-81
2023/07/28 05:25:15;;;;;;;15.90;10.48;;;;;;;26.07;40.09;94970.50;5025647;28;20674;-81
2023/07/28 05:27:41;;;;;;;15.85;5.30;;;;;;;26.70;38.03;94977.63;5024089;28;20260;-82
2023/07/28 05:30:07;;;;;;;7.72;3.92;;;;;;;27.24;36.55;94962.97;5019889;28;20222;-81
2023/07/28 05:32:32;;;;;;;9.43;3.47;;;;;;;27.80;34.94;94964.06;5016989;28;20176;-81
2023/07/28 05:34:58;;;;;;;10.88;5.10;;;;;;;28.26;34.03;94981.66;5021754;28;20176;-81
2023/07/28 05:37:23;;;;;;;7.72;4.18;;;;;;;28.01;33.92;94975.09;5023856;28;20160;-81
2023/07/28 05:39:49;;;;;;;8.18;4.25;;;;;;;28.43;33.69;94976.22;5020762;28;20192;-81
2023/07/28 05:42:14;;;;;;;7.68;3.80;;;;;;;28.94;32.74;94950.94;5020984;28;20701;-81
2023/07/28 05:44:40;;;;;;;7.43;3.60;;;;;;;29.70;31.99;94975.34;5021676;28;20256;-81
2023/07/28 05:47:06;;;;;;;5.57;2.88;;;;;;;29.96;30.67;94967.06;5020423;28;20254;-81
2023/07/28 05:49:31;;;;;;;8.02;3.38;;;;;;;29.74;31.48;94961.94;5016691;28;20164;-81
2023/07/28 05:51:58;;;;;;;15.80;3.47;;;;;;;30.02;30.86;94968.44;5015650;28;20611;-81
2023/07/28 05:54:24;;;;;;;2.83;2.13;;;;;;;29.10;30.35;94964.75;5017431;28;20271;-80
2023/07/28 05:56:49;;;;;;;3.08;2.70;;;;;;;28.66;31.42;94960.56;5022086;28;20251;-79
2023/07/28 05:59:16;;;;;;;9.32;2.72;;;;;;;28.65;31.95;94945.41;5024842;28;20225;-80
2023/07/28 06:01:41;;;;;;;3.83;2.42;;;;;;;29.04;31.92;94958.72;5028050;28;20242;-79
2023/07/28 06:04:07;;;;;;;5.53;2.58;;;;;;;28.99;31.23;94960.81;5024525;28;20181;-80
2023/07/28 06:06:32;;;;;;;6.03;2.60;;;;;;;29.08;31.47;94953.44;5027991;28;20164;-79
2023/07/28 06:08:58;;;;;;;7.75;2.85;;;;;;;28.39;31.23;94932.72;5025049;28;20271;-80
2023/07/28 06:11:24;;;;;;;6.90;2.90;;;;;;;27.67;33.68;94954.19;5026583;28;20172;-82
2023/07/28 06:13:50;;;;;;;6.28;2.40;;;;;;;27.25;34.80;94942.91;5015610;28;20169;-82
2023/07/28 06:16:16;;;;;;;5.90;2.80;;;;;;;26.74;34.61;94929.16;5031589;28;20216;-82
2023/07/28 06:18:41;;;;;;;8.10;3.40;;;;;;;26.76;35.48;94929.66;5017553;28;20198;-82
2023/07/28 06:21:07;;;;;;;4.13;2.83;;;;;;;27.28;34.58;94952.31;5034486;28;20696;-82
2023/07/28 06:23:32;;;;;;;9.43;3.47;;;;;;;27.33;34.67;94952.19;5034625;28;20258;-82
2023/07/28 06:25:57;;;;;;;4.97;2.83;;;;;;;27.09;34.61;94954.47;5033040;28;20182;-82
2023/07/28 06:28:23;;;;;;;5.90;3.38;;;;;;;27.03;36.43;94946.50;5017286;28;20163;-82
2023/07/28 06:30:56;;;;;;;7.25;3.10;;;;;;;26.86;34.99;94926.69;5034622;28;20172;-82
2023/07/28 06:33:22;;;;;;;4.45;2.60;;;;;;;26.90;34.92;94943.84;5035205;28;20152;-82
2023/07/28 06:35:47;;;;;;;3.42;2.90;;;;;;;26.21;35.76;94913.72;5034885;28;20156;-82
2023/07/28 06:38:13;;;;;;;6.07;3.15;;;;;;;25.59;37.98;94918.97;5034020;28;20178;-82
2023/07/28 06:40:38;;;;;;;4.85;3.30;;;;;;;25.64;38.87;94942.31;5034127;28;20237;-81
2023/07/28 06:43:04;;;;;;;10.88;3.83;;;;;;;25.39;38.36;94914.00;5034101;28;20654;-82
2023/07/28 06:45:29;;;;;;;12.38;2.92;;;;;;;25.91;38.70;94932.25;5033283;28;20281;-82
2023/07/28 06:47:55;;;;;;;10.23;3.10;;;;;;;26.17;38.77;94918.16;5024218;28;20204;-82
2023/07/28 06:50:20;;;;;;;7.25;3.03;;;;;;;26.56;36.51;94939.09;5015187;28;20168;-82
2023/07/28 06:52:47;;;;;;;2.90;2.45;;;;;;;26.64;36.18;94939.13;5014648;28;20674;-82
2023/07/28 06:55:14;;;;;;;7.40;2.72;;;;;;;26.55;37.37;94932.88;5018596;28;20207;-83
2023/07/28 06:57:39;;;;;;;8.95;3.13;;;;;;;26.17;37.30;94945.16;5033798;28;20650;-83
2023/07/28 07:00:05;;;;;;;13.70;2.83;;;;;;;25.81;38.39;94912.81;5033375;28;20180;-84
2023/07/28 07:02:31;;;;;;;5.22;2.75;;;;;;;25.85;38.46;94924.59;5015515;28;20196;-84
2023/07/28 07:04:56;;;;;;;6.38;3.20;;;;;;;26.08;38.91;94930.81;5015594;28;20182;-85
2023/07/28 07:07:21;;;;;;;7.18;3.15;;;;;;;26.06;37.83;94924.91;5033495;28;20176;-84
2023/07/28 07:09:47;;;;;;;4.60;2.90;;;;;;;25.97;36.97;94932.94;5030241;28;20187;-83
2023/07/28 07:12:12;;;;;;;5.53;3.20;;;;;;;25.83;37.39;94943.78;5033902;28;20623;-83
2023/07/28 07:14:38;;;;;;;5.57;2.83;;;;;;;26.01;37.54;94930.44;5033208;28;20207;-83
2023/07/28 07:17:03;;;;;;;6.00;3.22;;;;;;;26.55;37.71;94922.06;5033385;28;20164;-84
2023/07/28 07:19:29;;;;;;;4.47;3.05;;;;;;;26.44;37.32;94936.16;5033523;28;20610;-85
2023/07/28 07:21:55;;;;;;;6.95;2.78;;;;;;;26.51;38.25;94931.13;5016010;28;20195;-83
2023/07/28 07:24:21;;;;;;;7.85;2.65;;;;;;;26.72;36.21;94917.91;5032149;28;20259;-84
2023/07/28 07:26:46;;;;;;;6.57;2.85;;;;;;;26.93;35.70;94930.56;5009223;28;20189;-86
2023/07/28 07:29:12;;;;;;;9.95;3.10;;;;;;;26.90;35.41;94939.25;5027541;28;20247;-81
2023/07/28 07:31:38;;;;;;;7.30;2.85;;;;;;;26.85;35.72;94935.91;5032021;28;20167;-84
2023/07/28 07:34:04;;;;;;;5.35;2.88;;;;;;;26.79;35.63;94934.44;5033117;28;20168;-85
2023/07/28 07:36:29;;;;;;;8.02;4.30;;;;;;;27.19;36.75;94922.53;5023058;28;20783;-81
2023/07/28 07:38:55;;;;;;;7.00;3.20;;;;;;;27.10;35.06;94950.66;5032432;28;20180;-83
2023/07/28 07:41:21;;;;;;;6.35;2.92;;;;;;;26.81;35.51;94914.09;5016082;28;20196;-82
2023/07/28 07:43:48;;;;;;;6.13;3.88;;;;;;;27.35;35.66;94939.13;5019169;28;20172;-82
2023/07/28 07:46:15;;;;;;;4.97;2.67;;;;;;;27.12;35.28;94943.84;5029925;28;20176;-82
2023/07/28 07:48:40;;;;;;;6.22;3.55;;;;;;;27.27;35.43;94938.00;5032896;28;20179;-82
2023/07/28 07:51:07;;;;;;;6.88;3.00;;;;;;;27.50;35.35;94933.31;5032740;28;20168;-83
2023/07/28 07:53:32;;;;;;;6.45;3.22;;;;;;;27.88;35.52;94922.69;5032688;28;20164;-84
2023/07/28 07:55:57;;;;;;;7.57;2.92;;;;;;;28.23;33.88;94952.50;5014983;28;20168;-82
2023/07/28 07:58:23;;;;;;;3.28;2.70;;;;;;;28.44;34.18;94929.06;5003188;28;20184;-80
2023/07/28 08:00:51;;;;;;;5.90;2.47;;;;;;;28.95;33.93;94949.84;5019896;28;20556;-78
2023/07/28 08:03:17;;;;;;;5.60;2.40;;;;;;;29.16;32.37;94958.03;5013411;28;20259;-83
2023/07/28 08:05:42;;;;;;;11.27;3.53;;;;;;;28.82;32.35;94919.09;5011898;28;20251;-83
2023/07/28 08:08:08;;;;;;;5.45;2.75;;;;;;;29.33;33.17;94947.09;5013128;28;20153;-84
2023/07/28 08:10:34;;;;;;;5.00;2.75;;;;;;;29.61;33.05;94945.53;5012259;28;20260;-83
2023/07/28 08:12:59;;;;;;;7.68;2.85;;;;;;;29.78;32.98;94947.34;5013612;28;20189;-83
2023/07/28 08:15:25;;;;;;;8.32;3.60;;;;;;;29.87;30.67;94917.41;5012896;28;20228;-82
2023/07/28 08:17:51;;;;;;;13.63;2.80;;;;;;;29.67;31.65;94912.78;5022946;28;20188;-81
2023/07/28 08:20:17;;;;;;;4.22;2.90;;;;;;;29.92;31.50;94938.97;5020436;28;20267;-81
2023/07/28 08:22:42;;;;;;;6.93;3.60;;;;;;;30.24;31.84;94932.00;5025179;28;20291;-81
2023/07/28 08:25:08;;;;;;;7.45;2.50;;;;;;;30.04;31.19;94920.03;5024601;28;20207;-81
2023/07/28 08:27:33;;;;;;;6.97;3.00;;;;;;;29.81;31.92;94899.75;5020829;28;20168;-81
2023/07/28 08:29:59;;;;;;;8.45;3.08;;;;;;;30.18;31.10;94915.13;5017502;28;20655;-82
2023/07/28 08:32:24;;;;;;;9.07;2.60;;;;;;;30.32;30.28;94942.00;5012698;28;20168;-80
2023/07/28 08:34:50;;;;;;;5.57;3.13;;;;;;;29.78;30.63;94933.78;5021094;28;20180;-82
2023/07/28 08:37:15;;;;;;;5.70;2.53;;;;;;;29.95;31.52;94938.31;5024027;28;20229;-83
2023/07/28 08:39:41;;;;;;;8.77;2.38;;;;;;;29.83;30.73;94917.31;5028272;28;20561;-81
2023/07/28 08:42:06;;;;;;;4.38;2.60;;;;;;;29.72;30.28;94935.09;5028003;28;20204;-82
2023/07/28 08:44:33;;;;;;;6.53;2.70;;;;;;;29.34;30.83;94907.22;5020763;28;20688;-81
2023/07/28 08:47:07;;;;;;;9.88;2.85;;;;;;;29.13;31.97;94929.66;5025738;28;20639;-81
2023/07/28 08:49:35;;;;;;;11.75;3.10;;;;;;;29.10;31.16;94919.47;5020683;28;20180;-81
2023/07/28 08:52:01;;;;;;;8.60;2.60;;;;;;;29.36;31.35;94924.00;5020213;28;20973;-82
2023/07/28 08:54:27;;;;;;;5.82;2.60;;;;;;;29.44;32.00;94896.81;5013711;28;20260;-84
2023/07/28 08:56:53;;;;;;;4.35;2.33;;;;;;;29.67;31.74;94899.19;5015915;28;20239;-84
2023/07/28 08:59:26;;;;;;;7.50;3.63;;;;;;;29.97;30.36;94915.13;5024083;28;20172;-84
2023/07/28 09:01:53;;;;;;;11.15;2.70;;;;;;;29.80;31.37;94914.44;5023878;28;20279;-84
2023/07/28 09:04:20;;;;;;;5.45;2.50;;;;;;;30.01;32.48;94904.41;5004711;28;20263;-84
2023/07/28 09:06:46;;;;;;;5.60;2.20;;;;;;;30.02;30.37;94874.19;5012511;28;20168;-82
2023/07/28 09:09:13;;;;;;;10.60;3.67;;;;;;;29.31;30.87;94881.56;5012580;28;20172;-82
2023/07/28 09:11:48;;;;;;;7.50;3.53;;;;;;;29.23;31.56;94868.84;5012650;28;20172;-84
2023/07/28 09:14:16;;;;;;;4.43;3.47;;;;;;;28.78;31.58;94879.41;5012196;28;20258;-84
2023/07/28 09:16:45;;;;;;;5.85;2.50;;;;;;;28.59;32.38;94881.69;5012119;28;20223;-84
2023/07/28 09:19:11;;;;;;;9.88;2.78;;;;;;;28.22;31.83;94880.50;5026827;28;20184;-85
2023/07/28 09:21:42;;;;;;;8.50;2.75;;;;;;;28.09;32.81;94850.56;5019700;28;20227;-84
2023/07/28 09:24:13;;;;;;;5.28;2.35;;;;;;;28.49;32.39;94874.69;5027214;28;20680;-84
2023/07/28 09:26:49;;;;;;;3.42;2.28;;;;;;;28.58;32.53;94869.25;5034171;28;20167;-84
2023/07/28 09:29:20;;;;;;;7.43;2.65;;;;;;;28.57;31.63;94827.00;5035925;28;20159;-84
2023/07/28 09:31:46;;;;;;;2.50;2.28;;;;;;;28.73;32.54;94839.69;5035871;28;20152;-82
2023/07/28 09:34:22;;;;;;;7.80;2.30;;;;;;;29.05;31.33;94846.44;5032263;28;20160;-84
2023/07/28 09:36:48;;;;;;;3.78;1.90;;;;;;;28.93;30.34;94821.13;5016041;28;20184;-85
2023/07/28 09:39:14;;;;;;;5.35;2.55;;;;;;;29.10;31.07;94842.72;5016247;28;20218;-84
2023/07/28 09:41:40;;;;;;;13.10;3.13;;;;;;;29.06;31.49;94841.81;5015853;28;20626;-84
2023/07/28 09:44:05;;;;;;;6.53;2.85;;;;;;;28.72;32.48;94815.63;5020012;28;20670;-84
2023/07/28 09:46:35;;;;;;;4.22;2.10;;;;;;;28.76;31.63;94827.41;5013969;28;20188;-86
2023/07/28 09:49:05;;;;;;;5.97;2.28;;;;;;;28.65;31.33;94826.97;5021828;28;20183;-85
2023/07/28 09:51:32;;;;;;;3.83;2.58;;;;;;;28.20;32.62;94806.88;5025836;28;20179;-86
2023/07/28 09:54:06;;;;;;;2.97;2.20;;;;;;;28.33;32.42;94828.38;5024509;28;20160;-85
2023/07/28 09:56:32;;;;;;;3.83;2.30;;;;;;;28.42;33.89;94829.16;5023645;28;20172;-84
2023/07/28 09:59:01;;;;;;;6.28;2.20;;;;;;;28.66;32.53;94817.72;5016881;28;20609;-86
2023/07/28 10:01:26;;;;;;;3.35;2.50;;;;;;;28.90;32.77;94826.09;5027810;28;20632;-84
2023/07/28 10:03:52;;;;;;;3.83;2.30;;;;;;;29.07;33.37;94825.19;5024445;28;20180;-82
2023/07/28 10:06:18;;;;;;;8.85;2.33;;;;;;;29.18;32.96;94820.19;5025887;28;20693;-85
2023/07/28 10:08:45;;;;;;;4.43;2.60;;;;;;;29.24;30.88;94821.56;5027263;28;20229;-85
2023/07/28 10:11:12;;;;;;;3.17;2.08;;;;;;;29.18;33.15;94807.41;5031259;28;20172;-83
2023/07/28 10:13:42;;;;;;;5.70;2.38;;;;;;;29.39;32.88;94818.31;5030580;28;20183;-82
2023/07/28 10:16:12;;;;;;;2.80;1.83;;;;;;;29.15;31.03;94793.72;5029972;28;20219;-85
2023/07/28 10:18:37;;;;;;;5.65;2.38;;;;;;;29.21;32.33;94811.41;5030242;28;20210;-85
2023/07/28 10:21:12;;;;;;;7.45;2.58;;;;;;;29.22;31.93;94810.28;5031774;28;20697;-81
2023/07/28 10:23:38;;;;;;;4.05;2.00;;;;;;;29.35;33.76;94811.13;5026804;28;20245;-79
2023/07/28 10:26:07;;;;;;;4.78;2.63;;;;;;;29.41;32.95;94818.78;5033326;28;20643;-85
2023/07/28 10:28:41;;;;;;;7.88;3.00;;;;;;;29.48;32.93;94804.69;5033004;28;20647;-83
2023/07/28 10:31:10;;;;;;;5.22;2.17;;;;;;;29.51;32.56;94796.66;5035116;28;20149;-82
2023/07/28 10:33:46;;;;;;;3.78;2.08;;;;;;;29.36;32.13;94781.00;5013752;28;20191;-83
2023/07/28 10:36:21;;;;;;;5.82;2.22;;;;;;;29.48;32.92;94796.56;5026117;28;20168;-82
2023/07/28 10:38:58;;;;;;;3.42;2.13;;;;;;;29.48;33.74;94789.22;5008188;28;20186;-83
2023/07/28 10:41:25;;;;;;;4.40;2.20;;;;;;;29.50;31.62;94786.94;5023481;28;20192;-81
2023/07/28 10:43:51;;;;;;;5.95;2.47;;;;;;;29.32;31.37;94780.03;5022752;28;20182;-81
2023/07/28 10:46:19;;;;;;;4.50;2.42;;;;;;;29.22;34.00;94783.16;5008006;28;20254;-81
2023/07/28 10:48:46;;;;;;;7.07;2.30;;;;;;;29.28;33.14;94781.84;5009744;28;20176;-80
2023/07/28 10:51:19;;;;;;;5.20;2.70;;;;;;;29.20;31.85;94764.50;5027279;28;20199;-80
2023/07/28 10:53:44;;;;;;;4.22;2.53;;;;;;;29.21;33.58;94757.94;5029295;28;20164;-80
2023/07/28 10:56:11;;;;;;;3.88;2.10;;;;;;;29.48;34.06;94772.13;5030696;28;20262;-80
2023/07/28 10:58:36;;;;;;;4.93;2.30;;;;;;;29.27;32.64;94739.56;5015839;28;20648;-82
2023/07/28 11:01:02;;;;;;;4.50;2.65;;;;;;;29.46;33.02;94772.47;5033535;28;20202;-82
2023/07/28 11:03:28;;;;;;;5.95;2.45;;;;;;;29.38;33.68;94751.63;5033548;28;20176;-82
2023/07/28 11:05:56;;;;;;;5.53;2.40;;;;;;;29.34;32.97;94760.72;5033612;28;20247;-81
2023/07/28 11:08:22;;;;;;;3.05;2.05;;;;;;;29.21;34.31;94725.41;5029251;28;20177;-81
2023/07/28 11:10:48;;;;;;;2.63;2.03;;;;;;;29.40;31.96;94760.22;5028776;28;20178;-81
2023/07/28 11:13:13;;;;;;;6.80;1.95;;;;;;;29.33;30.90;94753.69;5033549;28;20587;-82
2023/07/28 11:15:39;;;;;;;2.40;2.15;;;;;;;29.20;32.79;94723.03;5029892;28;20602;-82
2023/07/28 11:18:05;;;;;;;2.38;2.08;;;;;;;29.41;31.74;94737.38;5022459;28;20581;-83
2023/07/28 11:20:30;;;;;;;3.67;1.80;;;;;;;29.02;30.31;94697.16;5023806;28;20168;-83
2023/07/28 11:22:57;;;;;;;5.35;2.00;;;;;;;28.88;30.74;94738.09;5022850;28;20576;-81
2023/07/28 11:25:24;;;;;;;5.65;1.70;;;;;;;28.57;32.29;94710.50;5022691;28;20532;-81
2023/07/28 11:27:51;;;;;;;2.92;2.08;;;;;;;28.82;32.96;94732.06;5024101;28;20584;-81